createdAt,value
2022-09-03T00:09:33.227Z,17.20
2022-09-03T00:19:45.687Z,17.10
2022-09-03T00:29:56.536Z,17.00
2022-09-03T00:40:00.721Z,16.70
2022-09-03T00:50:14.241Z,16.40
2022-09-03T01:00:20.918Z,16.30
2022-09-03T01:10:36.724Z,16.10
2022-09-03T01:20:55.648Z,15.80
2022-09-03T01:31:14.303Z,15.70
2022-09-03T01:41:46.070Z,15.60
2022-09-03T01:51:59.964Z,15.30
2022-09-03T02:02:08.908Z,15.40
2022-09-03T02:12:20.121Z,15.70
2022-09-03T02:22:23.904Z,15.50
2022-09-03T02:32:29.431Z,15.60
2022-09-03T02:42:34.973Z,15.80
2022-09-03T02:52:40.144Z,15.90
2022-09-03T03:02:47.052Z,15.90
2022-09-03T03:12:52.186Z,16.00
2022-09-03T03:22:55.979Z,16.00
2022-09-03T03:33:01.228Z,16.10
2022-09-03T03:43:04.915Z,16.10
2022-09-03T03:53:09.965Z,16.10
2022-09-03T04:03:13.657Z,16.10
2022-09-03T04:13:18.933Z,16.20
2022-09-03T04:23:22.755Z,16.20
2022-09-03T04:33:27.901Z,16.40
2022-09-03T04:43:31.903Z,16.60
2022-09-03T04:53:42.078Z,16.60
2022-09-03T05:04:04.775Z,16.50
2022-09-03T05:14:12.527Z,16.60
2022-09-03T05:24:17.807Z,16.70
2022-09-03T05:34:22.950Z,17.10
2022-09-03T05:44:26.683Z,17.30
2022-09-03T05:54:31.712Z,17.50
2022-09-03T06:04:35.473Z,17.70
2022-09-03T06:14:40.596Z,18.00
2022-09-03T06:24:44.318Z,18.30
2022-09-03T06:34:49.396Z,18.30
2022-09-03T06:44:53.148Z,18.40
2022-09-03T06:54:58.207Z,18.30
2022-09-03T07:05:03.689Z,18.30
2022-09-03T07:15:12.383Z,18.10
2022-09-03T07:25:17.389Z,18.00
2022-09-03T07:35:25.687Z,17.80
2022-09-03T07:45:29.820Z,17.80
2022-09-03T07:55:34.964Z,17.70
2022-09-03T08:05:38.972Z,17.50
2022-09-03T08:15:44.224Z,17.50
2022-09-03T08:25:48.070Z,17.60
2022-09-03T08:35:55.641Z,17.70
2022-09-03T08:45:59.862Z,17.90
2022-09-03T08:56:11.527Z,18.00
2022-09-03T09:06:23.148Z,18.20
2022-09-03T09:16:39.899Z,18.00
2022-09-03T09:26:43.807Z,18.60
2022-09-03T09:36:52.360Z,19.20
2022-09-03T09:47:07.574Z,19.60
2022-09-03T09:57:18.862Z,19.30
2022-09-03T10:07:29.505Z,19.50
2022-09-03T10:17:53.297Z,19.90
2022-09-03T10:28:00.541Z,20.10
2022-09-03T10:38:18.555Z,20.10
2022-09-03T10:49:02.638Z,19.60
2022-09-03T10:59:29.323Z,19.70
2022-09-03T11:09:40.931Z,21.10
2022-09-03T11:19:51.227Z,21.50
2022-09-03T11:30:02.008Z,21.50
2022-09-03T11:40:16.905Z,21.50
2022-09-03T11:50:25.904Z,22.20
2022-09-03T12:00:31.257Z,23.30
2022-09-03T12:10:47.803Z,23.70
2022-09-03T12:21:05.002Z,23.30
2022-09-03T12:31:20.244Z,23.20
2022-09-03T12:41:28.543Z,23.10
2022-09-03T12:51:48.606Z,22.50
2022-09-03T13:01:59.612Z,22.70
2022-09-03T13:12:05.733Z,23.30
2022-09-03T13:22:24.316Z,22.50
2022-09-03T13:32:40.615Z,22.40
2022-09-03T13:42:54.270Z,22.70
2022-09-03T13:53:04.199Z,22.50
2022-09-03T14:03:18.557Z,22.50
2022-09-03T14:13:40.026Z,22.80
2022-09-03T14:23:52.670Z,23.20
2022-09-03T14:34:05.086Z,24.10
2022-09-03T14:44:31.011Z,24.20
2022-09-03T14:55:11.401Z,24.10
2022-09-03T15:05:28.572Z,23.80
2022-09-03T15:15:47.647Z,23.40
2022-09-03T15:26:26.734Z,23.40
2022-09-03T15:36:40.637Z,24.10
2022-09-03T15:46:58.164Z,24.00
2022-09-03T15:57:09.085Z,24.30
2022-09-03T16:07:25.937Z,24.50
2022-09-03T16:17:34.910Z,24.30
2022-09-03T16:27:55.569Z,23.80
2022-09-03T16:38:25.086Z,23.50
2022-09-03T16:48:46.303Z,23.60
2022-09-03T16:59:03.992Z,23.30
2022-09-03T17:09:34.610Z,22.90
2022-09-03T17:19:51.536Z,22.70
2022-09-03T17:30:09.863Z,22.50
2022-09-03T17:40:37.833Z,22.40
2022-09-03T17:50:53.006Z,22.20
2022-09-03T18:01:05.110Z,22.10
2022-09-03T18:11:13.141Z,21.70
2022-09-03T18:21:41.845Z,21.30
2022-09-03T18:32:04.950Z,21.10
2022-09-03T18:42:35.119Z,20.80
2022-09-03T18:53:06.229Z,20.80
2022-09-03T19:03:44.732Z,20.60
2022-09-03T19:14:07.480Z,20.50
2022-09-03T19:24:30.497Z,20.30
2022-09-03T19:35:12.026Z,20.10
2022-09-03T19:45:43.818Z,20.00
2022-09-03T19:56:11.657Z,19.80
2022-09-03T20:06:33.536Z,19.70
2022-09-03T20:16:54.150Z,19.60
2022-09-03T20:27:18.944Z,19.50
2022-09-03T20:37:36.072Z,19.30
2022-09-03T20:48:13.415Z,19.10
2022-09-03T20:58:28.993Z,18.90
2022-09-03T21:08:56.011Z,18.70
2022-09-03T21:19:11.627Z,18.40
2022-09-03T21:29:25.458Z,18.00
2022-09-03T21:39:36.899Z,17.50
2022-09-03T21:49:54.425Z,17.40
2022-09-03T22:00:18.765Z,17.40
2022-09-03T22:10:29.127Z,17.30
2022-09-03T22:20:36.508Z,17.30
2022-09-03T22:30:49.624Z,17.10
2022-09-03T22:41:06.436Z,17.00
2022-09-03T22:51:11.012Z,16.80
2022-09-03T23:01:23.314Z,16.40
2022-09-03T23:11:34.516Z,16.60
2022-09-03T23:21:42.301Z,16.50
2022-09-03T23:31:46.198Z,16.50
2022-09-03T23:42:06.793Z,16.50
2022-09-03T23:52:53.874Z,16.30
